Latest Weather Observations for Deniliquin

IDN60801

Issued at 1:32 pm EST Saturday 19 August 2017 (issued every 30 minutes, with the page automatically refreshed every 10 minutes)

About weather observations | Map of weather stations | Latest weather observations for NSW | Other Formats
Station Details ID: 074258 Name: DENILIQUIN AIRPORT AWS Lat: -35.56 Lon: 144.95 Height: 94.0 m
Data from the previous 72 hours. | See also: Recent months at Deniliquin
Date/Time
EST
Temp
°C
App
Temp
°C
Dew
Point
°C
Rel
Hum
%
Delta-T
°C
Wind Press
QNH
hPa
Press
MSL
hPa
Rain since
9am
mm
Dir  Spd
km/h
Gust
km/h
Spd
kts
Gust
kts
19/01:30pm 11.9 6.3 3.2 55 3.8 SSW 22 30 12 16 1025.7 1025.9 0.0
19/01:00pm 11.4 5.5 1.9 52 4.0 SSW 22 30 12 16 1025.8 1026.0 0.0
19/12:30pm 11.2 5.2 3.3 58 3.5 SSW 24 33 13 18 1025.9 1026.1 0.0
19/12:00pm 10.3 4.5 2.2 57 3.4 SSW 22 32 12 17 1026.1 1026.3 0.0
19/11:30am 10.2 3.8 3.3 62 3.0 SSW 26 33 14 18 1026.4 1026.6 0.0
19/11:00am 10.1 4.8 4.9 70 2.3 SSW 22 30 12 16 1026.4 1026.6 0.0
19/10:30am 8.5 2.5 3.6 71 2.1 SSW 24 28 13 15 1026.7 1026.8 0.0
19/10:00am 7.8 2.0 4.6 80 1.4 SW 24 28 13 15 1026.3 1026.5 0.0
19/09:30am 6.8 0.9 4.1 83 1.2 SW 24 28 13 15 1026.3 1026.5 0.0
19/09:00am 5.7 0.2 4.2 90 0.6 SW 22 28 12 15 1026.0 1026.2 0.2
19/08:30am 4.2 -0.4 3.6 96 0.2 WSW 17 22 9 12 1025.7 1025.9 0.2
19/08:00am 2.2 -2.7 1.8 97 0.2 WSW 17 20 9 11 1025.2 1025.4 0.2
19/07:30am 1.0 -3.4 0.6 97 0.1 W 13 17 7 9 1024.6 1024.8 0.2
19/07:00am 0.8 -4.0 0.4 97 0.1 W 15 17 8 9 1024.1 1024.3 0.2
19/06:30am 0.6 -3.9 0.0 96 0.2 WSW 13 15 7 8 1023.7 1023.9 0.2
19/06:00am 1.3 -3.0 0.9 97 0.1 WSW 13 17 7 9 1023.2 1023.4 0.2
19/05:30am 1.6 -3.4 1.2 97 0.2 WSW 17 19 9 10 1022.8 1023.0 0.2
19/05:00am 0.9 -3.9 0.2 95 0.3 WSW 15 17 8 9 1022.7 1022.9 0.2
19/04:30am 1.7 -3.0 1.0 95 0.3 W 15 19 8 10 1022.5 1022.6 0.0
19/04:00am 2.1 -2.9 1.5 96 0.2 W 17 22 9 12 1022.2 1022.3 0.0
19/03:30am 1.9 -3.1 1.2 95 0.3 W 17 22 9 12 1021.9 1022.0 0.0
19/03:00am 2.3 -3.1 1.4 94 0.3 W 19 22 10 12 1021.8 1021.9 0.0
19/02:30am 2.4 -2.6 1.5 94 0.3 W 17 20 9 11 1021.9 1022.0 0.0
19/02:00am 2.8 -2.5 1.9 94 0.4 W 19 22 10 12 1021.9 1022.0 0.0
19/01:30am 3.0 -2.5 2.0 93 0.4 W 20 24 11 13 1022.0 1022.1 0.0
19/01:00am 3.4 -1.8 2.2 92 0.5 W 19 24 10 13 1022.0 1022.1 0.0
19/12:30am 3.4 -1.5 2.1 91 0.5 W 17 22 9 12 1021.8 1021.9 0.0
19/12:00am 3.9 -1.3 2.4 90 0.6 W 19 24 10 13 1021.7 1021.8 0.0
 
Date/Time
EST
Temp
°C
App
Temp
°C
Dew
Point
°C
Rel
Hum
%
Delta-T
°C
Wind Press
QNH
hPa
Press
MSL
hPa
Rain since
9am
mm
Dir  Spd
km/h
Gust
km/h
Spd
kts
Gust
kts
18/11:30pm 4.0 -1.4 2.5 90 0.6 W 20 24 11 13 1021.6 1021.7 0.0
18/11:00pm 3.9 -0.6 2.4 90 0.6 W 15 19 8 10 1021.4 1021.5 0.0
18/10:30pm 4.4 -0.7 2.8 89 0.7 W 19 24 10 13 1021.2 1021.3 0.0
18/10:00pm 4.6 -0.7 2.8 88 0.7 W 20 24 11 13 1021.2 1021.3 0.0
18/09:30pm 4.3 -0.1 2.8 90 0.6 W 15 19 8 10 1020.9 1021.0 0.0
18/09:00pm 3.9 -0.2 2.3 89 0.6 W 13 15 7 8 1020.6 1020.7 0.0
18/08:30pm 5.0 0.6 2.5 84 1.0 W 15 19 8 10 1020.3 1020.4 0.0
18/08:00pm 6.2 0.9 2.8 79 1.4 W 20 28 11 15 1020.1 1020.2 0.0
18/07:30pm 7.0 1.8 3.6 79 1.5 W 20 28 11 15 1019.5 1019.6 0.0
18/07:00pm 5.9 1.2 3.2 83 1.1 W 17 20 9 11 1019.4 1019.5 0.0
18/06:30pm 6.7 2.1 3.7 81 1.3 W 17 20 9 11 1019.1 1019.2 0.0
18/06:00pm 7.3 1.8 3.9 79 1.5 WSW 22 24 12 13 1018.7 1018.8 0.0
18/05:30pm 8.4 2.1 4.0 74 1.9 WSW 26 32 14 17 1018.0 1018.1 0.0
18/05:00pm 8.7 1.9 5.3 79 1.5 WSW 30 35 16 19 1017.4 1017.5 0.0
18/04:30pm 8.4 0.6 5.0 79 1.5 SW 35 54 19 29 1017.3 1017.4 0.0
18/04:28pm 8.7 1.5 4.9 77 1.7 SW 32 54 17 29 1017.3 1017.4 0.0
18/04:00pm 8.9 0.9 3.9 71 2.2 SSW 35 44 19 24 1016.5 1016.6 0.0
18/03:41pm 10.6 0.9 2.7 58 3.4 WSW 43 56 23 30 1016.1 1016.2 0.0
18/03:30pm 13.2 3.7 4.1 54 4.2 W 43 57 23 31 1015.3 1015.5 0.0
18/03:06pm 12.2 2.7 3.9 57 3.7 W 43 63 23 34 1014.9 1015.1 0.0
18/03:00pm 12.5 3.7 5.7 63 3.2 W 41 56 22 30 1015.0 1015.2 0.0
18/02:30pm 11.9 2.2 3.9 58 3.6 WSW 44 65 24 35 1014.8 1015.0 0.0
18/02:04pm 12.9 2.7 3.0 51 4.4 W 46 65 25 35 1014.3 1014.5 0.0
18/02:00pm 12.7 2.6 3.6 54 4.1 W 46 59 25 32 1014.3 1014.5 0.0
18/01:30pm 12.2 2.4 3.2 54 4.0 W 44 54 24 29 1014.4 1014.6 0.0
18/01:09pm 12.9 3.5 4.3 56 3.9 W 43 63 23 34 1014.3 1014.5 0.0
18/01:00pm 12.0 2.3 3.8 57 3.7 W 44 61 24 33 1014.4 1014.6 0.0
18/12:30pm 12.2 2.9 4.9 61 3.4 W 43 61 23 33 1014.5 1014.7 0.0
18/12:05pm 11.3 1.8 4.1 61 3.2 W 43 61 23 33 1014.5 1014.7 0.0
18/12:00pm 11.2 2.2 4.4 63 3.1 W 41 56 22 30 1014.6 1014.8 0.0
18/11:30am 11.2 1.9 5.1 66 2.8 W 43 61 23 33 1014.7 1014.9 0.0
18/11:06am 10.9 1.7 5.4 69 2.5 W 43 61 23 33 1014.8 1015.0 0.0
18/11:00am 10.8 1.3 5.1 68 2.6 W 44 61 24 33 1014.8 1015.0 0.0
18/10:30am 10.5 1.2 5.1 69 2.5 W 43 57 23 31 1014.7 1014.9 0.0
18/10:11am 9.9 1.3 4.5 69 2.4 W 39 57 21 31 1014.5 1014.7 0.0
18/10:00am 9.7 0.8 4.9 72 2.2 W 41 57 22 31 1014.6 1014.8 0.0
18/09:30am 9.1 0.2 5.1 76 1.8 W 41 54 22 29 1014.3 1014.5 0.0
18/09:00am 8.5 1.1 4.9 78 1.6 WNW 33 44 18 24 1013.7 1013.9 2.6
18/08:51am 8.3 1.0 4.7 78 1.6 WNW 32 50 17 27 1013.6 1013.7 2.6
18/08:30am 7.8 0.5 4.6 80 1.4 WNW 32 41 17 22 1013.4 1013.5 2.6
18/08:00am 7.0 1.6 4.3 83 1.2 WNW 22 33 12 18 1013.1 1013.2 2.6
18/07:30am 6.0 1.0 3.8 86 0.9 WNW 19 24 10 13 1012.7 1012.8 2.6
18/07:00am 6.0 1.1 4.0 87 0.9 WNW 19 26 10 14 1012.2 1012.3 2.6
18/06:30am 5.8 0.3 3.8 87 0.8 WNW 22 28 12 15 1011.5 1011.6 2.6
18/06:00am 5.9 0.4 4.1 88 0.8 WNW 22 30 12 16 1011.3 1011.4 2.6
18/05:30am 6.0 0.2 4.3 89 0.7 WNW 24 30 13 16 1011.1 1011.2 2.6
18/05:00am 6.1 -0.1 4.3 88 0.8 WNW 26 35 14 19 1010.7 1010.8 2.6
18/04:30am 6.4 -0.2 4.2 86 0.9 WNW 28 39 15 21 1010.5 1010.6 2.6
18/04:00am 6.5 0.7 4.3 86 1.0 WNW 24 30 13 16 1010.0 1010.1 2.6
18/03:30am 6.6 0.4 4.4 86 1.0 WNW 26 37 14 20 1010.2 1010.3 2.6
18/03:00am 6.8 0.6 4.3 84 1.1 WNW 26 33 14 18 1010.0 1010.1 2.6
18/02:30am 7.0 1.2 4.3 83 1.2 WNW 24 30 13 16 1009.7 1009.8 2.6
18/02:00am 7.5 1.0 4.5 81 1.3 WNW 28 35 15 19 1009.9 1010.0 2.6
18/01:30am 7.6 1.5 4.6 81 1.3 WNW 26 33 14 18 1009.9 1010.0 2.6
18/01:00am 7.7 1.6 4.8 82 1.3 WNW 26 35 14 19 1009.6 1009.7 2.6
18/12:30am 7.9 1.5 5.0 82 1.3 WNW 28 39 15 21 1009.6 1009.7 2.6
18/12:00am 7.7 2.4 5.2 84 1.1 WNW 22 30 12 16 1009.6 1009.7 2.6
 
Date/Time
EST
Temp
°C
App
Temp
°C
Dew
Point
°C
Rel
Hum
%
Delta-T
°C
Wind Press
QNH
hPa
Press
MSL
hPa
Rain since
9am
mm
Dir  Spd
km/h
Gust
km/h
Spd
kts
Gust
kts
17/11:30pm 7.7 2.8 5.2 84 1.1 WNW 20 28 11 15 1009.4 1009.5 2.6
17/11:00pm 8.0 2.0 5.1 82 1.3 WNW 26 33 14 18 1009.5 1009.6 2.6
17/10:30pm 8.5 2.1 5.3 80 1.4 WNW 28 37 15 20 1009.4 1009.5 2.6
17/10:00pm 8.3 2.8 5.9 85 1.1 NW 24 33 13 18 1009.2 1009.3 2.6
17/09:30pm 8.4 3.3 5.9 84 1.1 NW 22 30 12 16 1009.3 1009.4 2.6
17/09:00pm 8.4 3.3 6.0 85 1.1 WNW 22 30 12 16 1009.3 1009.4 2.6
17/08:30pm 8.5 3.1 6.3 86 1.0 NW 24 33 13 18 1008.9 1009.0 2.6
17/08:12pm 9.2 3.2 7.2 87 0.9 WNW 28 50 15 27 1009.5 1009.6 2.6
17/08:11pm 9.1 3.1 7.1 87 0.9 WNW 28 44 15 24 1009.5 1009.6 2.6
17/08:00pm 8.7 4.5 7.5 92 0.6 WNW 19 24 10 13 1009.5 1009.6 2.6
17/07:30pm 8.5 5.0 7.4 93 0.5 WNW 15 20 8 11 1008.5 1008.6 2.6
17/07:00pm 8.8 4.8 8.4 97 0.2 WNW 19 30 10 16 1008.9 1009.0 2.6
17/06:30pm 8.6 6.5 8.3 98 0.1 WNW 9 11 5 6 1008.4 1008.5 1.6
17/06:00pm 8.6 6.1 8.0 96 0.3 WNW 11 15 6 8 1007.7 1007.8 1.4
17/05:30pm 8.8 4.7 7.9 94 0.4 WSW 19 24 10 13 1007.4 1007.5 1.4
17/05:00pm 8.7 1.9 7.0 89 0.8 WSW 32 44 17 24 1007.3 1007.4 0.6
17/04:48pm 12.0 7.0 6.5 69 2.6 WNW 22 52 12 28 1006.8 1006.9 0.0
17/04:30pm 12.9 8.3 6.5 65 3.1 NW 20 28 11 15 1006.0 1006.1 0.0
17/04:00pm 14.2 7.8 5.0 54 4.3 WNW 28 44 15 24 1005.8 1005.9 0.0
17/03:30pm 14.5 7.2 5.6 55 4.2 WNW 33 52 18 28 1005.6 1005.7 0.0
17/03:21pm 15.4 8.2 4.8 49 5.0 WNW 32 52 17 28 1005.5 1005.6 0.0
17/03:00pm 15.0 7.8 5.0 51 4.7 WNW 32 46 17 25 1005.4 1005.5 0.0
17/02:30pm 14.8 7.6 5.1 52 4.6 WNW 32 43 17 23 1005.6 1005.7 0.0
17/02:01pm 15.7 7.7 5.6 51 4.9 WNW 37 56 20 30 1005.5 1005.6 0.0
17/02:00pm 15.8 7.4 5.4 50 5.0 WNW 39 56 21 30 1005.5 1005.6 0.0
17/01:34pm 15.6 7.8 4.9 49 5.1 WNW 35 56 19 30 1005.6 1005.7 0.0
17/01:30pm 16.0 8.9 6.4 53 4.7 WNW 33 46 18 25 1005.7 1005.8 0.0
17/01:18pm 15.3 7.6 5.2 51 4.8 WNW 35 56 19 30 1005.7 1005.8 0.0
17/01:00pm 15.8 8.3 6.3 53 4.7 WNW 35 50 19 27 1006.0 1006.1 0.0
17/12:30pm 14.4 6.3 7.2 62 3.5 WNW 39 57 21 31 1006.2 1006.3 0.0
17/12:23pm 14.5 6.7 6.8 60 3.8 WNW 37 57 20 31 1006.2 1006.3 0.0
17/12:00pm 14.2 7.2 6.8 61 3.6 WNW 33 44 18 24 1006.5 1006.6 0.0
17/11:30am 13.6 6.2 6.9 64 3.3 WNW 35 44 19 24 1006.3 1006.4 0.0
17/11:00am 13.9 6.1 6.7 62 3.5 WNW 37 54 20 29 1006.7 1006.8 0.0
17/10:30am 13.3 6.1 5.9 61 3.5 WNW 33 48 18 26 1007.0 1007.1 0.0
17/10:00am 13.0 5.3 5.4 60 3.6 WNW 35 54 19 29 1007.0 1007.1 0.0
17/09:50am 12.8 5.7 5.5 61 3.4 NW 32 50 17 27 1007.0 1007.1 0.0
17/09:30am 11.7 6.2 5.8 67 2.8 NW 24 37 13 20 1007.1 1007.2 0.0
17/09:00am 10.4 5.1 5.2 70 2.4 NW 22 28 12 15 1007.1 1007.2 0.0
17/08:30am 9.4 3.6 4.6 72 2.1 NW 24 33 13 18 1007.0 1007.1 0.0
17/08:00am 8.6 3.3 4.8 77 1.7 NW 22 28 12 15 1006.8 1006.9 0.0
17/07:30am 7.1 2.3 4.4 83 1.2 NNW 19 20 10 11 1006.7 1006.8 0.0
17/07:00am 7.0 2.1 4.3 83 1.2 NNW 19 22 10 12 1006.4 1006.5 0.0
17/06:30am 6.8 1.7 4.3 84 1.1 NNW 20 24 11 13 1006.5 1006.6 0.0
17/06:00am 7.0 2.6 4.5 84 1.1 NNW 17 20 9 11 1006.5 1006.6 0.0
17/05:30am 6.8 2.7 4.1 83 1.2 NNW 15 17 8 9 1006.5 1006.6 0.0
17/05:00am 7.5 3.1 4.6 82 1.3 NNW 17 20 9 11 1006.3 1006.4 0.0
17/04:30am 7.9 4.3 4.8 81 1.4 N 13 19 7 10 1006.5 1006.6 0.0
17/04:00am 9.2 5.3 5.2 76 1.8 NW 15 19 8 10 1006.7 1006.8 0.0
17/03:30am 8.8 5.3 5.5 80 1.5 NNW 13 15 7 8 1006.7 1006.8 0.0
17/03:00am 9.0 5.4 5.2 77 1.7 NW 13 17 7 9 1007.1 1007.2 0.0
17/02:30am 9.7 4.9 4.9 72 2.2 NW 19 24 10 13 1007.1 1007.2 0.0
17/02:00am 8.6 4.2 5.0 78 1.6 NNW 17 22 9 12 1007.2 1007.3 0.0
17/01:30am 8.5 4.2 5.1 79 1.5 NNW 17 22 9 12 1007.3 1007.4 0.0
17/01:00am 8.7 4.4 5.3 79 1.5 NNW 17 20 9 11 1007.6 1007.7 0.0
17/12:30am 8.8 4.2 5.4 79 1.5 NNW 19 24 10 13 1007.8 1007.9 0.0
17/12:00am 9.0 4.7 5.4 78 1.6 NNW 17 20 9 11 1007.9 1008.0 0.0
 
Date/Time
EST
Temp
°C
App
Temp
°C
Dew
Point
°C
Rel
Hum
%
Delta-T
°C
Wind Press
QNH
hPa
Press
MSL
hPa
Rain since
9am
mm
Dir  Spd
km/h
Gust
km/h
Spd
kts
Gust
kts
16/11:30pm 9.4 5.2 5.6 77 1.7 NNW 17 26 9 14 1007.9 1008.0 0.0
16/11:00pm 9.8 5.2 5.8 76 1.8 NNW 19 24 10 13 1008.1 1008.2 0.0
16/10:30pm 9.9 5.4 5.9 76 1.8 NNW 19 20 10 11 1008.2 1008.3 0.0
16/10:00pm 10.1 5.5 6.3 77 1.8 NNW 20 24 11 13 1008.3 1008.4 0.0
16/09:30pm 10.8 6.5 6.9 77 1.9 NNW 19 22 10 12 1008.3 1008.4 0.0
16/09:00pm 11.6 7.7 7.1 74 2.2 NW 17 30 9 16 1008.2 1008.3 0.0
16/08:30pm 11.4 7.5 7.1 75 2.1 NNW 17 20 9 11 1007.7 1007.8 0.0
16/08:00pm 10.5 6.9 6.8 78 1.8 NNW 15 17 8 9 1007.7 1007.8 0.0
16/07:30pm 10.7 7.4 6.5 75 2.0 NNW 13 15 7 8 1007.4 1007.5 0.0
16/07:00pm 12.3 8.2 6.1 66 2.9 NW 17 20 9 11 1007.1 1007.2 0.0
16/06:30pm 12.9 9.1 6.0 63 3.3 NW 15 19 8 10 1006.8 1006.9 0.0
16/06:00pm 13.1 8.6 6.0 62 3.4 WNW 19 24 10 13 1006.4 1006.5 0.0
16/05:30pm 13.9 8.3 5.5 57 4.0 NW 24 32 13 17 1005.9 1006.0 0.0
16/05:00pm 14.7 8.5 6.3 57 4.1 NW 28 43 15 23 1005.6 1005.7 0.0
16/04:30pm 15.1 9.0 6.7 57 4.1 NW 28 41 15 22 1005.4 1005.5 0.0
16/04:14pm 15.3 8.1 6.1 54 4.5 WNW 33 54 18 29 1005.4 1005.5 0.0
16/04:00pm 15.9 9.4 6.6 54 4.6 WNW 30 44 16 24 1005.4 1005.5 0.0
16/03:30pm 15.4 8.3 6.4 55 4.4 WNW 33 44 18 24 1005.1 1005.2 0.0
16/03:00pm 15.5 8.4 6.2 54 4.5 WNW 33 43 18 23 1004.8 1004.8 0.0
16/02:30pm 15.5 7.9 6.0 53 4.6 WNW 35 44 19 24 1004.7 1004.7 0.0
16/02:00pm 15.4 9.0 6.9 57 4.2 WNW 30 43 16 23 1004.5 1004.5 0.0
16/01:43pm 15.7 8.2 6.2 53 4.6 WNW 35 54 19 29 1004.2 1004.3 0.0

Other Formats:

Comma delimited format used in spreadsheet applications
http://www.bom.gov.au/fwo/IDN60801/IDN60801.95869.axf

JavaScript Object Notation format (JSON) in row-major order
http://www.bom.gov.au/fwo/IDN60801/IDN60801.95869.json